LDSP/SPU METAR and TAF weather

Enter ICAO airport designator
Station Type Date Time Source
LDSP METAR 2021/09/16 20:30 UTC NOAA

LDSP 162030Z 11003KT 060V130 CAVOK 24/19 Q1015 NOSIG


Station Type Date Time Source
LDSP Decoded METAR 2021/09/16 20:30 UTC NOAA

Split / Resnik, Croatia (LDSP) 43-32N 016-18E 21M
Sep 16, 2021 - 04:30 PM EDT / 2021.09.16 2030 UTC
Wind: from the ESE (110 degrees) at 3 MPH (3 KT) (direction variable):0
Visibility: greater than 7 mile(s):0
Temperature: 75 F (24 C)
Dew Point: 66 F (19 C)
Relative Humidity: 73%
Pressure (altimeter): 29.97 in. Hg (1015 hPa)
ob: LDSP 162030Z 11003KT 060V130 CAVOK 24/19 Q1015 NOSIG
cycle: 20

Station Type Date Time Source
LDSP TAF 2021/09/16 18:27 UTC NOAA

TAF LDSP 161725Z 1618/1718 12007KT 9999 FEW040 TX27/1712Z TN20/1704Z PROB40
TEMPO 1706/1715 VRB15KT TSRA FEW030CB BKN050
TEMPO 1715/1718 VRB15G25KT 4000 TSRA SCT020CB BKN040

Example: see airport list